createdAt,value
2023-01-23T20:54:50.291Z,-2.00
2023-01-23T20:57:18.314Z,-1.90
2023-01-23T20:59:45.863Z,-1.80
2023-01-23T21:02:27.132Z,-1.80
2023-01-23T21:04:55.242Z,-1.70
2023-01-23T21:07:26.158Z,-1.60
2023-01-23T21:09:55.717Z,-1.60
2023-01-23T21:12:23.658Z,-1.50
2023-01-23T21:14:51.665Z,-1.40
2023-01-23T21:17:19.648Z,-1.50
2023-01-23T21:19:47.923Z,-1.50
2023-01-23T21:22:15.917Z,-1.40
2023-01-23T21:24:43.943Z,-1.30
2023-01-23T21:27:14.248Z,-1.30
2023-01-23T21:29:42.269Z,-1.30
2023-01-23T21:32:10.270Z,-1.30
2023-01-23T21:34:38.516Z,-1.30
2023-01-23T21:37:07.370Z,-1.30
2023-01-23T21:39:35.364Z,-1.20
2023-01-23T21:42:03.337Z,-1.20
2023-01-23T21:44:34.583Z,-1.10
2023-01-23T21:47:03.627Z,-1.10
2023-01-23T21:49:31.678Z,-1.10
2023-01-23T21:51:59.688Z,-1.10
2023-01-23T21:54:27.660Z,-1.20
2023-01-23T21:56:55.692Z,-1.20
2023-01-23T21:59:23.608Z,-1.20
2023-01-23T22:01:52.130Z,-1.20
2023-01-23T22:04:22.406Z,-1.20
2023-01-23T22:06:55.131Z,-1.20
2023-01-23T22:09:25.026Z,-1.30
2023-01-23T22:11:53.051Z,-1.40
2023-01-23T22:14:21.329Z,-1.40
2023-01-23T22:16:50.783Z,-1.40
2023-01-23T22:19:25.353Z,-1.40
2023-01-23T22:21:54.173Z,-1.30
2023-01-23T22:24:22.486Z,-1.40
2023-01-23T22:26:50.639Z,-1.50
2023-01-23T22:29:18.602Z,-1.50
2023-01-23T22:31:46.784Z,-1.60
2023-01-23T22:34:14.850Z,-1.60
2023-01-23T22:36:44.184Z,-1.60
2023-01-23T22:39:16.053Z,-1.60
2023-01-23T22:41:45.636Z,-1.50
2023-01-23T22:44:14.484Z,-1.60
2023-01-23T22:46:42.596Z,-1.60
2023-01-23T22:49:10.606Z,-1.40
2023-01-23T22:51:38.605Z,-1.50
2023-01-23T22:54:08.002Z,-1.40
2023-01-23T22:56:36.062Z,-1.40
2023-01-23T22:59:04.148Z,-1.40
2023-01-23T23:01:32.317Z,-1.40
2023-01-23T23:04:01.340Z,-1.40
2023-01-23T23:06:29.561Z,-1.30
2023-01-23T23:08:57.545Z,-1.40
2023-01-23T23:11:28.780Z,-1.40
2023-01-23T23:13:57.783Z,-1.40
2023-01-23T23:16:28.201Z,-1.30
2023-01-23T23:18:58.540Z,-1.40
2023-01-23T23:21:30.299Z,-1.30
2023-01-23T23:23:59.388Z,-1.30
2023-01-23T23:26:30.697Z,-1.40
2023-01-23T23:28:59.242Z,-1.20
2023-01-23T23:31:27.737Z,-1.20
2023-01-23T23:33:55.936Z,-1.10
2023-01-23T23:36:24.359Z,-1.10
2023-01-23T23:38:52.368Z,-1.00
2023-01-23T23:41:20.705Z,-1.00
2023-01-23T23:43:50.048Z,-1.00
2023-01-23T23:46:18.580Z,-0.90
2023-01-23T23:48:48.125Z,-0.90
2023-01-23T23:51:18.645Z,-0.90
2023-01-23T23:53:47.760Z,-0.90
2023-01-23T23:56:21.325Z,-0.90
2023-01-23T23:58:50.939Z,-0.90
